Ames, Iowa
Current Conditions -  °F | °C
As of 12:06 PM on Monday 24 Nov 2014 (Local Time) from KAMW Reporting Station
Light Snow Light Snow  
Wind Chill:   Ceiling: 2600
Heat Index: 24°   Visibility: 1.7mi
Dew Point: 17°   Wind: 23mph
Humidity: 75%   Direction: 300°WNW
Pressure: 29.6"   Gusts: 36mph
Location:  42.03°N, 93.62°W
Report Text: KAMW 241806Z AUTO 30020G31KT 1 3/4SM -SN FEW019 BKN026 OVC030 M04/M08 A2960 RMK AO2 PK WND 31031/1804 SNB1758 P0000 T10441083
Loading
Personal Weather Stations






























Interactive Weather Map New forecast layout! Learn more

10-Day Weather Forecast

Advertisements
Track Severe Weather on mobile